createdAt,value
2022-11-21T00:00:49.218Z,33.67
2022-11-21T00:03:15.901Z,41.22
2022-11-21T00:05:45.119Z,43.72
2022-11-21T00:08:14.080Z,43.08
2022-11-21T00:10:41.597Z,50.75
2022-11-21T00:13:16.819Z,99.53
2022-11-21T00:15:43.970Z,61.97
2022-11-21T00:18:12.788Z,44.30
2022-11-21T00:20:40.734Z,36.85
2022-11-21T00:23:07.763Z,42.22
2022-11-21T00:25:35.640Z,36.65
2022-11-21T00:28:02.412Z,42.97
2022-11-21T00:30:29.629Z,44.08
2022-11-21T00:32:58.455Z,36.67
2022-11-21T00:35:25.398Z,41.53
2022-11-21T00:37:52.052Z,40.28
2022-11-21T00:40:19.103Z,42.47
2022-11-21T00:42:45.861Z,40.90
2022-11-21T00:45:12.796Z,47.85
2022-11-21T00:47:39.464Z,35.72
2022-11-21T00:50:06.724Z,39.45
2022-11-21T00:52:33.362Z,40.03
2022-11-21T00:55:00.254Z,38.00
2022-11-21T00:57:27.042Z,35.33
2022-11-21T00:59:53.966Z,45.15
2022-11-21T01:02:20.731Z,32.47
2022-11-21T01:04:47.747Z,38.83
2022-11-21T01:07:15.227Z,44.50
2022-11-21T01:09:42.229Z,43.47
2022-11-21T01:12:08.944Z,47.75
2022-11-21T01:14:35.956Z,48.78
2022-11-21T01:17:02.650Z,42.03
2022-11-21T01:19:29.682Z,45.78
2022-11-21T01:21:56.386Z,45.08
2022-11-21T01:24:23.327Z,39.28
2022-11-21T01:26:51.157Z,39.83
2022-11-21T01:29:18.538Z,42.80
2022-11-21T01:31:45.229Z,35.60
2022-11-21T01:34:12.353Z,43.75
2022-11-21T01:36:39.104Z,39.85
2022-11-21T01:39:07.862Z,40.22
2022-11-21T01:41:38.667Z,39.80
2022-11-21T01:44:25.126Z,34.83
2022-11-21T01:46:52.925Z,34.20
2022-11-21T01:49:32.730Z,30.08
2022-11-21T01:52:06.491Z,33.88
2022-11-21T01:54:54.797Z,38.10
2022-11-21T01:57:29.328Z,30.92
2022-11-21T02:00:03.169Z,35.60
2022-11-21T02:02:37.229Z,44.05
2022-11-21T02:05:07.000Z,35.50
2022-11-21T02:07:40.029Z,39.25
2022-11-21T02:10:09.248Z,38.70
2022-11-21T02:12:42.895Z,37.80
2022-11-21T02:15:10.682Z,33.47
2022-11-21T02:17:37.387Z,33.10
2022-11-21T02:20:08.094Z,32.13
2022-11-21T02:23:00.138Z,22.67
2022-11-21T02:25:30.145Z,25.98
2022-11-21T02:28:05.457Z,30.73
2022-11-21T02:30:37.074Z,36.38
2022-11-21T02:33:04.220Z,31.27
2022-11-21T02:35:31.359Z,26.40
2022-11-21T02:38:14.526Z,25.77
2022-11-21T02:43:23.019Z,31.58
2022-11-21T02:45:50.423Z,36.75
2022-11-21T02:48:17.201Z,34.20
2022-11-21T02:50:47.079Z,33.05
2022-11-21T02:53:17.196Z,33.53
2022-11-21T02:55:44.858Z,32.05
2022-11-21T02:58:12.732Z,36.72
2022-11-21T03:00:42.311Z,26.60
2022-11-21T03:03:09.615Z,25.15
2022-11-21T03:05:38.015Z,26.17
2022-11-21T03:08:05.281Z,27.30
2022-11-21T03:10:32.736Z,27.23
2022-11-21T03:13:03.196Z,28.90
2022-11-21T03:15:32.648Z,29.70
2022-11-21T03:18:01.181Z,34.17
2022-11-21T03:20:31.651Z,36.15
2022-11-21T03:22:58.416Z,36.60
2022-11-21T03:25:25.418Z,33.92
2022-11-21T03:27:53.557Z,36.75
2022-11-21T03:30:22.021Z,37.70
2022-11-21T03:32:48.820Z,34.28
2022-11-21T03:35:16.394Z,35.58
2022-11-21T03:37:43.372Z,29.58
2022-11-21T03:40:10.884Z,35.78
2022-11-21T03:42:37.620Z,38.13
2022-11-21T03:45:05.120Z,31.92
2022-11-21T03:47:31.949Z,37.40
2022-11-21T03:49:58.881Z,35.33
2022-11-21T03:52:25.693Z,31.35
2022-11-21T03:54:52.642Z,34.00
2022-11-21T03:57:19.438Z,34.83
2022-11-21T03:59:46.341Z,38.15
2022-11-21T04:02:12.994Z,32.97
2022-11-21T04:04:40.912Z,35.88
2022-11-21T04:07:07.619Z,30.50
2022-11-21T04:09:34.587Z,31.50
2022-11-21T04:12:06.378Z,40.47
2022-11-21T04:14:34.864Z,39.85
2022-11-21T04:17:02.594Z,40.42
2022-11-21T04:19:29.498Z,40.08
2022-11-21T04:21:56.120Z,33.78
2022-11-21T04:24:23.284Z,43.35
2022-11-21T04:26:49.916Z,35.75
2022-11-21T04:29:16.875Z,39.42
2022-11-21T04:31:43.562Z,40.90
2022-11-21T04:34:10.509Z,62.67
2022-11-21T04:36:37.520Z,81.88
2022-11-21T04:39:04.693Z,65.43
2022-11-21T04:41:31.362Z,41.17
2022-11-21T04:43:58.290Z,40.13
2022-11-21T04:46:25.019Z,37.78
2022-11-21T04:48:51.928Z,47.63
2022-11-21T04:51:18.598Z,34.90
2022-11-21T04:53:45.519Z,37.58
2022-11-21T04:56:16.276Z,36.17
2022-11-21T04:58:44.563Z,39.33
2022-11-21T05:01:11.368Z,39.90
2022-11-21T05:03:38.601Z,38.60
2022-11-21T05:06:05.263Z,34.53
2022-11-21T05:08:32.214Z,34.60
2022-11-21T05:11:17.122Z,40.38
2022-11-21T05:13:44.100Z,39.60
2022-11-21T05:16:10.748Z,30.20
2022-11-21T05:18:37.625Z,34.97
2022-11-21T05:21:04.638Z,28.40
2022-11-21T05:23:31.614Z,37.75
2022-11-21T05:25:58.253Z,34.38
2022-11-21T05:28:25.311Z,39.60
2022-11-21T05:30:51.997Z,32.35
2022-11-21T05:33:19.339Z,28.80
2022-11-21T05:35:46.352Z,28.98
2022-11-21T05:38:13.525Z,34.67
2022-11-21T05:40:40.214Z,29.27
2022-11-21T05:43:25.728Z,35.80
2022-11-21T05:45:53.043Z,40.10
2022-11-21T05:48:20.023Z,39.35
2022-11-21T05:50:49.562Z,31.25
2022-11-21T05:53:17.597Z,38.15
2022-11-21T05:55:45.075Z,58.78
2022-11-21T05:58:12.430Z,68.40
2022-11-21T06:00:39.331Z,40.38
2022-11-21T06:03:27.117Z,55.08
2022-11-21T06:06:07.416Z,50.80
2022-11-21T06:08:39.852Z,51.83
2022-11-21T06:11:08.586Z,45.97
2022-11-21T06:13:36.507Z,47.10
2022-11-21T06:16:06.482Z,49.42
2022-11-21T06:18:36.390Z,51.92
2022-11-21T06:21:10.324Z,47.55
2022-11-21T06:23:37.281Z,39.53
2022-11-21T06:26:06.476Z,40.60
2022-11-21T06:28:38.478Z,46.15
2022-11-21T06:31:14.238Z,52.58
2022-11-21T06:33:42.410Z,45.40
2022-11-21T06:36:14.120Z,46.53
2022-11-21T06:38:41.828Z,54.35
2022-11-21T06:41:19.065Z,40.30
2022-11-21T06:43:46.716Z,42.97
2022-11-21T06:46:14.617Z,48.85
2022-11-21T06:48:42.194Z,46.90
2022-11-21T06:51:16.243Z,39.92
2022-11-21T06:53:43.300Z,40.33
2022-11-21T06:56:09.959Z,43.25
2022-11-21T06:58:37.219Z,40.70
2022-11-21T07:01:11.068Z,38.28
2022-11-21T07:03:38.048Z,49.17
2022-11-21T07:06:05.164Z,44.35
2022-11-21T07:08:35.376Z,46.65
2022-11-21T07:11:24.634Z,39.60
2022-11-21T07:13:52.344Z,45.00
2022-11-21T07:16:18.994Z,41.22
2022-11-21T07:18:45.885Z,47.22
2022-11-21T07:21:12.898Z,49.17
2022-11-21T07:23:39.897Z,39.60
2022-11-21T07:26:08.292Z,50.92
2022-11-21T07:28:35.502Z,63.63
2022-11-21T07:31:07.127Z,41.30
2022-11-21T07:33:39.820Z,35.58
2022-11-21T07:36:07.307Z,67.95
2022-11-21T07:38:34.649Z,57.85
2022-11-21T07:41:01.452Z,58.35
2022-11-21T07:43:28.375Z,47.22
2022-11-21T07:45:56.229Z,41.72
2022-11-21T07:48:23.232Z,43.83
2022-11-21T07:50:49.930Z,58.40
2022-11-21T07:53:16.895Z,71.35
2022-11-21T07:55:43.572Z,34.03
2022-11-21T07:58:12.976Z,27.38
2022-11-21T08:00:42.894Z,24.02
2022-11-21T08:03:12.154Z,17.63
2022-11-21T08:05:41.765Z,20.88
2022-11-21T08:08:09.726Z,23.20
2022-11-21T08:10:42.246Z,23.98
2022-11-21T08:13:09.265Z,19.40
2022-11-21T08:15:36.808Z,19.65
2022-11-21T08:18:10.902Z,16.83
2022-11-21T08:20:37.687Z,17.38
2022-11-21T08:23:06.091Z,17.17
2022-11-21T08:25:34.609Z,19.45
2022-11-21T08:28:02.923Z,23.25
2022-11-21T08:30:30.234Z,22.80
2022-11-21T08:32:58.876Z,20.48
2022-11-21T08:35:26.262Z,18.42
2022-11-21T08:38:11.087Z,24.42
2022-11-21T08:40:37.725Z,22.70
2022-11-21T08:43:07.209Z,22.42
2022-11-21T08:45:35.667Z,20.27
2022-11-21T08:48:03.639Z,19.95
2022-11-21T08:50:31.915Z,18.77
2022-11-21T08:53:01.263Z,14.88
2022-11-21T08:55:28.357Z,19.80
2022-11-21T08:57:55.310Z,19.08
2022-11-21T09:00:22.203Z,22.75
2022-11-21T09:02:49.139Z,15.52
2022-11-21T09:05:15.775Z,22.17
2022-11-21T09:07:42.973Z,18.48
2022-11-21T09:10:10.232Z,20.48
2022-11-21T09:12:37.244Z,17.95
2022-11-21T09:15:22.930Z,16.50
2022-11-21T09:18:05.024Z,14.52
2022-11-21T09:20:34.307Z,19.33
2022-11-21T09:23:09.489Z,16.35
2022-11-21T09:25:36.433Z,16.63
2022-11-21T09:28:05.060Z,25.75
2022-11-21T09:30:31.845Z,14.10
2022-11-21T09:33:04.007Z,18.80
2022-11-21T09:35:30.964Z,13.53
2022-11-21T09:38:24.270Z,16.17
2022-11-21T09:43:35.971Z,14.57
2022-11-21T09:46:10.040Z,17.08
2022-11-21T09:49:03.511Z,28.58
2022-11-21T09:51:31.053Z,21.00
2022-11-21T09:54:15.285Z,26.52
2022-11-21T09:56:43.235Z,32.13
2022-11-21T09:59:39.059Z,19.63
2022-11-21T10:02:16.011Z,18.65
2022-11-21T10:04:43.876Z,26.27
2022-11-21T10:07:20.829Z,21.52
2022-11-21T10:10:12.459Z,18.35
2022-11-21T10:12:50.970Z,20.70
2022-11-21T10:15:32.073Z,18.15
2022-11-21T10:18:28.197Z,27.17
2022-11-21T10:21:01.181Z,31.27
2022-11-21T10:23:44.196Z,36.28
2022-11-21T10:26:22.776Z,13.38
2022-11-21T10:28:59.278Z,25.48
2022-11-21T10:31:37.967Z,26.45
2022-11-21T10:34:18.133Z,22.42
2022-11-21T10:36:50.711Z,15.32
2022-11-21T10:39:22.712Z,15.80
2022-11-21T10:41:52.315Z,15.70
2022-11-21T10:44:49.535Z,14.90
2022-11-21T10:47:28.398Z,12.82
2022-11-21T10:50:10.418Z,14.85
2022-11-21T10:53:03.243Z,21.70
2022-11-21T10:55:29.858Z,18.02
2022-11-21T10:57:57.018Z,16.50
2022-11-21T11:00:27.897Z,14.50
2022-11-21T11:03:06.884Z,24.55
2022-11-21T11:05:37.876Z,17.13
2022-11-21T11:08:15.164Z,21.00
2022-11-21T11:11:01.594Z,15.93
2022-11-21T11:13:46.283Z,18.73
2022-11-21T11:16:17.515Z,12.70
2022-11-21T11:19:08.578Z,12.65
2022-11-21T11:21:53.568Z,26.48
2022-11-21T11:24:25.943Z,18.90
2022-11-21T11:26:56.499Z,12.65
2022-11-21T11:29:30.602Z,13.48
2022-11-21T11:32:21.250Z,12.73
2022-11-21T11:35:06.344Z,13.55
2022-11-21T11:37:40.835Z,13.95
2022-11-21T11:40:32.716Z,16.38
2022-11-21T11:43:33.041Z,11.10
2022-11-21T11:46:33.465Z,12.20
2022-11-21T11:49:20.201Z,12.18
2022-11-21T11:51:56.620Z,10.80
2022-11-21T11:54:35.176Z,12.63
2022-11-21T11:57:04.613Z,15.85
2022-11-21T11:59:37.458Z,14.35
2022-11-21T12:04:50.988Z,23.25
2022-11-21T12:10:27.660Z,22.30
2022-11-21T12:13:11.244Z,13.57
2022-11-21T12:15:49.711Z,22.27
2022-11-21T12:18:19.707Z,51.72
2022-11-21T12:21:24.623Z,22.48
2022-11-21T12:23:56.930Z,16.65
2022-11-21T12:26:34.815Z,22.50
2022-11-21T12:29:13.811Z,39.28
2022-11-21T12:32:05.132Z,119.35
2022-11-21T12:34:38.875Z,24.52
2022-11-21T12:37:33.259Z,22.77
2022-11-21T12:40:00.587Z,30.27
2022-11-21T12:42:47.337Z,19.98
2022-11-21T12:45:28.904Z,36.97
2022-11-21T12:48:36.274Z,30.95
2022-11-21T12:51:34.165Z,22.35
2022-11-21T12:54:31.962Z,41.67
2022-11-21T12:57:12.486Z,19.95
2022-11-21T13:00:17.614Z,24.75
2022-11-21T13:03:03.096Z,13.35
2022-11-21T13:05:32.661Z,13.27
2022-11-21T13:08:05.932Z,19.08
2022-11-21T13:13:26.060Z,30.13
2022-11-21T13:16:01.385Z,18.02
2022-11-21T13:18:43.084Z,11.90
2022-11-21T13:21:42.813Z,22.67
2022-11-21T13:24:10.165Z,17.90
2022-11-21T13:26:36.914Z,26.85
2022-11-21T13:29:12.323Z,31.45
2022-11-21T13:31:40.710Z,23.08
2022-11-21T13:34:34.720Z,19.83
2022-11-21T13:37:01.673Z,10.70
2022-11-21T13:39:31.507Z,27.00
2022-11-21T13:42:25.264Z,26.33
2022-11-21T13:44:52.746Z,15.20
2022-11-21T13:47:28.471Z,20.73
2022-11-21T13:50:20.521Z,12.43
2022-11-21T13:52:50.374Z,272.10
2022-11-21T13:56:11.958Z,14.90
2022-11-21T13:59:19.869Z,18.95
2022-11-21T14:01:53.134Z,22.75
2022-11-21T14:04:50.287Z,34.30
2022-11-21T14:07:28.125Z,52.95
2022-11-21T14:09:57.970Z,44.78
2022-11-21T14:12:33.595Z,61.22
2022-11-21T14:15:01.958Z,21.50
2022-11-21T14:17:47.707Z,49.50
2022-11-21T14:20:22.947Z,21.77
2022-11-21T14:23:03.841Z,15.95
2022-11-21T14:25:43.429Z,37.50
2022-11-21T14:28:33.070Z,25.35
2022-11-21T14:31:07.325Z,19.52
2022-11-21T14:33:35.375Z,24.20
2022-11-21T14:36:03.641Z,23.55
2022-11-21T14:38:35.599Z,20.10
2022-11-21T14:41:22.017Z,26.33
2022-11-21T14:43:48.958Z,25.35
2022-11-21T14:46:19.631Z,22.50
2022-11-21T14:48:47.135Z,72.25
2022-11-21T14:51:19.447Z,49.47
2022-11-21T14:53:48.733Z,39.78
2022-11-21T14:56:30.745Z,52.38
2022-11-21T14:59:01.997Z,151.05
2022-11-21T15:01:30.726Z,85.25
2022-11-21T15:04:04.634Z,98.88
2022-11-21T15:06:39.998Z,25.40
2022-11-21T15:12:07.809Z,61.47
2022-11-21T15:14:45.390Z,31.08
2022-11-21T15:17:17.890Z,48.47
2022-11-21T15:22:35.877Z,73.45
2022-11-21T15:25:17.009Z,33.83
2022-11-21T15:27:48.515Z,66.97
2022-11-21T15:30:15.398Z,55.90
2022-11-21T15:33:03.895Z,41.58
2022-11-21T15:35:43.199Z,201.73
2022-11-21T15:38:20.479Z,153.43
2022-11-21T15:41:24.075Z,56.15
2022-11-21T15:43:54.797Z,484.48
2022-11-21T15:46:29.921Z,132.05
2022-11-21T15:48:58.080Z,114.18
2022-11-21T15:51:51.741Z,224.27
2022-11-21T15:54:19.769Z,574.55
2022-11-21T15:56:47.354Z,266.10
2022-11-21T15:59:15.563Z,97.43
2022-11-21T16:01:42.571Z,114.78
2022-11-21T16:04:12.007Z,141.07
2022-11-21T16:06:38.986Z,77.45
2022-11-21T16:09:06.206Z,72.57
2022-11-21T16:11:37.308Z,68.72
2022-11-21T16:14:06.190Z,151.07
2022-11-21T16:16:42.610Z,121.75
2022-11-21T16:19:11.638Z,41.20
2022-11-21T16:21:38.563Z,53.83
2022-11-21T16:24:05.866Z,66.63
2022-11-21T16:26:33.532Z,58.30
2022-11-21T16:29:01.316Z,41.47
2022-11-21T16:31:30.481Z,64.47
2022-11-21T16:33:58.031Z,64.88
2022-11-21T16:36:27.386Z,169.30
2022-11-21T16:38:54.432Z,248.13
2022-11-21T16:41:22.913Z,180.68
2022-11-21T16:43:52.202Z,152.57
2022-11-21T16:46:21.311Z,160.30
2022-11-21T16:48:48.512Z,147.50
2022-11-21T16:51:18.720Z,119.47
2022-11-21T16:53:48.382Z,78.47
2022-11-21T16:56:16.192Z,84.05
2022-11-21T16:58:43.486Z,123.38
2022-11-21T17:01:18.520Z,198.82
2022-11-21T17:03:47.380Z,202.93
2022-11-21T17:06:17.612Z,200.93
2022-11-21T17:08:44.886Z,197.95
2022-11-21T17:11:29.107Z,208.50
2022-11-21T17:14:00.125Z,211.00
2022-11-21T17:16:28.247Z,91.20
2022-11-21T17:18:56.798Z,87.03
2022-11-21T17:21:24.127Z,99.40
2022-11-21T17:23:51.450Z,84.53
2022-11-21T17:26:20.599Z,93.18
2022-11-21T17:28:58.991Z,116.45
2022-11-21T17:31:27.136Z,89.90
2022-11-21T17:33:56.552Z,91.90
2022-11-21T17:36:25.277Z,87.57
2022-11-21T17:38:52.500Z,67.80
2022-11-21T17:41:20.827Z,61.78
2022-11-21T17:43:48.398Z,67.45
2022-11-21T17:46:17.647Z,63.25
2022-11-21T17:48:51.286Z,65.97
2022-11-21T17:51:27.215Z,71.20
2022-11-21T17:53:53.972Z,79.28
2022-11-21T17:56:23.350Z,78.88
2022-11-21T17:58:51.084Z,83.50
2022-11-21T18:01:21.930Z,108.07
2022-11-21T18:04:03.858Z,87.05
2022-11-21T18:06:39.238Z,76.32
2022-11-21T18:09:07.512Z,57.22
2022-11-21T18:11:39.632Z,42.78
2022-11-21T18:14:09.021Z,40.50
2022-11-21T18:16:36.103Z,35.95
2022-11-21T18:19:02.825Z,37.05
2022-11-21T18:21:31.868Z,41.85
2022-11-21T18:24:02.114Z,37.72
2022-11-21T18:26:35.471Z,41.28
2022-11-21T18:31:50.914Z,42.60
2022-11-21T18:34:17.730Z,33.00
2022-11-21T18:36:44.832Z,33.10
2022-11-21T18:39:15.057Z,39.30
2022-11-21T18:41:43.544Z,26.90
2022-11-21T18:44:10.858Z,27.83
2022-11-21T18:46:40.832Z,38.95
2022-11-21T18:49:08.455Z,44.78
2022-11-21T18:51:36.529Z,33.03
2022-11-21T18:54:10.888Z,50.00
2022-11-21T18:56:39.350Z,69.63
2022-11-21T18:59:06.692Z,80.70
2022-11-21T19:01:36.063Z,63.15
2022-11-21T19:04:02.960Z,43.05
2022-11-21T19:06:29.989Z,78.95
2022-11-21T19:08:58.029Z,66.35
2022-11-21T19:11:27.817Z,49.58
2022-11-21T19:13:55.960Z,154.32
2022-11-21T19:16:24.848Z,119.20
2022-11-21T19:21:42.310Z,57.60
2022-11-21T19:24:13.964Z,47.88
2022-11-21T19:26:41.541Z,46.80
2022-11-21T19:29:09.202Z,54.28
2022-11-21T19:31:41.004Z,30.45
2022-11-21T19:34:11.349Z,44.08
2022-11-21T19:36:39.371Z,44.03
2022-11-21T19:39:06.016Z,48.58
2022-11-21T19:41:32.985Z,33.70
2022-11-21T19:44:00.566Z,57.13
2022-11-21T19:46:32.022Z,52.58
2022-11-21T19:48:59.413Z,50.03
2022-11-21T19:51:35.372Z,49.08
2022-11-21T19:54:03.151Z,46.05
2022-11-21T19:56:30.104Z,43.83
2022-11-21T19:58:57.579Z,53.90
2022-11-21T20:01:27.301Z,66.53
2022-11-21T20:03:57.344Z,89.15
2022-11-21T20:06:30.864Z,44.17
2022-11-21T20:09:03.786Z,45.65
2022-11-21T20:11:31.771Z,36.72
2022-11-21T20:13:58.752Z,32.88
2022-11-21T20:16:43.879Z,66.90
2022-11-21T20:19:12.910Z,66.07
2022-11-21T20:21:39.930Z,47.70
2022-11-21T20:24:07.522Z,46.17
2022-11-21T20:26:35.482Z,53.05
2022-11-21T20:29:02.829Z,62.80
2022-11-21T20:31:32.751Z,69.97
2022-11-21T20:34:01.895Z,80.15
2022-11-21T20:36:31.149Z,60.50
2022-11-21T20:39:03.096Z,68.75
2022-11-21T20:41:32.576Z,71.78
2022-11-21T20:46:48.845Z,34.67
2022-11-21T20:49:15.996Z,31.10
2022-11-21T20:54:33.219Z,38.63
2022-11-21T20:57:00.273Z,29.45
2022-11-21T20:59:27.473Z,31.80
2022-11-21T21:01:55.070Z,32.60
2022-11-21T21:04:21.852Z,34.80
2022-11-21T21:06:48.777Z,22.77
2022-11-21T21:09:15.733Z,47.45
2022-11-21T21:11:52.126Z,105.97
2022-11-21T21:14:21.418Z,31.83
2022-11-21T21:16:48.935Z,58.92
2022-11-21T21:19:15.992Z,57.92
2022-11-21T21:21:43.226Z,92.63
2022-11-21T21:24:11.731Z,104.13
2022-11-21T21:26:46.115Z,120.18
2022-11-21T21:29:18.805Z,65.88
2022-11-21T21:31:51.024Z,113.95
2022-11-21T21:34:20.232Z,35.70
2022-11-21T21:36:47.302Z,27.58
2022-11-21T21:39:14.252Z,27.80
2022-11-21T21:41:44.518Z,50.10
2022-11-21T21:44:11.877Z,52.70
2022-11-21T21:46:38.834Z,73.13
2022-11-21T21:49:05.529Z,51.50
2022-11-21T21:51:32.563Z,38.85
2022-11-21T21:54:00.038Z,67.32
2022-11-21T21:56:28.842Z,61.67
2022-11-21T21:58:57.801Z,59.03
2022-11-21T22:01:28.069Z,33.50
2022-11-21T22:03:56.837Z,26.52
2022-11-21T22:06:24.797Z,35.45
2022-11-21T22:08:52.091Z,36.30
2022-11-21T22:11:25.300Z,25.92
2022-11-21T22:13:54.329Z,31.55
2022-11-21T22:16:21.427Z,32.83
2022-11-21T22:18:48.381Z,29.20
2022-11-21T22:21:27.800Z,30.90
2022-11-21T22:24:24.859Z,36.83
2022-11-21T22:26:43.380Z,27.40
2022-11-21T22:29:10.241Z,43.67
2022-11-21T22:31:37.543Z,40.50
2022-11-21T22:34:04.335Z,31.75
2022-11-21T22:36:31.327Z,32.30
2022-11-21T22:38:58.029Z,40.78
2022-11-21T22:41:27.194Z,57.00
2022-11-21T22:43:56.226Z,40.15
2022-11-21T22:46:24.389Z,44.47
2022-11-21T22:48:51.433Z,43.88
2022-11-21T22:51:22.151Z,34.78
2022-11-21T22:53:49.596Z,42.40
2022-11-21T22:56:18.770Z,38.65
2022-11-21T22:58:45.890Z,33.50
2022-11-21T23:01:23.765Z,42.28
2022-11-21T23:03:51.224Z,27.77
2022-11-21T23:06:20.399Z,32.00
2022-11-21T23:08:47.611Z,36.10
2022-11-21T23:11:21.824Z,38.65
2022-11-21T23:13:48.903Z,43.50
2022-11-21T23:16:16.592Z,37.80
2022-11-21T23:18:43.522Z,38.63
2022-11-21T23:21:11.738Z,32.60
2022-11-21T23:23:38.737Z,32.60
2022-11-21T23:26:06.554Z,52.70
2022-11-21T23:28:33.623Z,61.20
2022-11-21T23:31:00.666Z,32.00
2022-11-21T23:33:27.438Z,47.67
2022-11-21T23:35:55.041Z,38.25
2022-11-21T23:38:22.022Z,32.42
2022-11-21T23:40:49.760Z,46.35
2022-11-21T23:43:17.937Z,31.23
2022-11-21T23:45:49.233Z,41.05
2022-11-21T23:48:15.993Z,71.75
2022-11-21T23:50:42.929Z,59.45
2022-11-21T23:53:09.636Z,40.97
2022-11-21T23:55:36.641Z,35.63
2022-11-21T23:58:03.330Z,56.10
